Time;durP1;ratioP1;P1;durP2;ratioP2;P2;SDS_P1;SDS_P2;PMS_P1;PMS_P2;Temp;Humidity;BMP_temperature;BMP_pressure;BME280_temperature;BME280_humidity;BME280_pressure;Samples;Min_cycle;Max_cycle;Signal;HPM_P1;HPM_P2
2023/07/06 00:01:26;;;;;;;8.02;3.70;;;22.90;99.90;;;;;;7401784;19;20224;-74
2023/07/06 00:03:56;;;;;;;10.95;3.10;;;22.90;99.90;;;;;;7403808;19;19928;-75
2023/07/06 00:06:22;;;;;;;7.07;2.78;;;22.90;99.90;;;;;;7379175;19;19914;-74
2023/07/06 00:08:48;;;;;;;;;;;22.90;99.90;;;;;;7404574;19;19923;-74
2023/07/06 00:11:14;;;;;;;6.50;2.75;;;22.90;99.90;;;;;;7399470;19;19935;-73
2023/07/06 00:13:40;;;;;;;6.88;2.90;;;22.80;99.90;;;;;;7400782;19;19910;-73
2023/07/06 00:16:07;;;;;;;9.48;3.50;;;22.80;99.90;;;;;;7401154;19;19921;-74
2023/07/06 00:18:33;;;;;;;7.55;2.70;;;22.80;99.90;;;;;;7400509;19;19943;-73
2023/07/06 00:21:00;;;;;;;7.85;2.55;;;22.80;99.90;;;;;;7400322;19;19922;-74
2023/07/06 00:23:26;;;;;;;9.30;3.05;;;22.80;99.90;;;;;;7397986;19;19949;-73
2023/07/06 00:25:52;;;;;;;9.50;2.88;;;22.80;99.90;;;;;;7399443;19;19927;-74
2023/07/06 00:28:24;;;;;;;14.20;3.08;;;22.70;99.90;;;;;;7401248;19;19919;-73
2023/07/06 00:30:55;;;;;;;7.38;3.10;;;22.70;99.90;;;;;;7397467;19;19932;-73
2023/07/06 00:33:23;;;;;;;5.70;2.42;;;22.70;99.90;;;;;;7398868;19;20408;-74
2023/07/06 00:35:50;;;;;;;7.07;2.80;;;22.70;99.90;;;;;;7401683;19;19939;-73
2023/07/06 00:38:16;;;;;;;;;;;22.60;99.90;;;;;;7402404;19;19915;-73
2023/07/06 00:40:48;;;;;;;8.40;3.17;;;22.70;99.90;;;;;;7403249;19;19918;-73
2023/07/06 00:43:17;;;;;;;8.45;2.35;;;22.70;99.90;;;;;;7400585;19;19959;-73
2023/07/06 00:45:45;;;;;;;7.53;3.03;;;22.60;99.90;;;;;;7400876;19;19918;-74
2023/07/06 00:48:32;;;;;;;6.90;2.85;;;22.70;99.90;;;;;;7399416;19;19926;-73
2023/07/06 00:51:05;;;;;;;8.13;2.78;;;22.60;99.90;;;;;;7399458;19;19919;-73
2023/07/06 00:53:37;;;;;;;7.30;3.42;;;22.60;99.90;;;;;;7400269;19;19939;-73
2023/07/06 00:56:06;;;;;;;8.20;3.25;;;22.70;99.90;;;;;;7398811;19;20013;-73
2023/07/06 00:58:38;;;;;;;8.45;3.05;;;22.60;99.90;;;;;;7402110;19;19922;-73
2023/07/06 01:01:07;;;;;;;7.90;3.75;;;22.60;99.90;;;;;;7398489;19;20292;-73
2023/07/06 01:03:44;;;;;;;8.70;3.20;;;22.60;99.90;;;;;;7402302;19;19918;-74
2023/07/06 01:06:15;;;;;;;7.43;2.85;;;22.60;99.90;;;;;;7398295;19;19940;-74
2023/07/06 01:08:41;;;;;;;8.65;3.85;;;22.60;99.90;;;;;;7400890;19;20294;-74
2023/07/06 01:11:09;;;;;;;9.82;3.20;;;22.70;99.90;;;;;;7397338;19;19911;-74
2023/07/06 01:13:36;;;;;;;6.95;2.83;;;22.70;99.90;;;;;;7398047;19;19915;-73
2023/07/06 01:16:08;;;;;;;9.98;3.42;;;22.60;99.90;;;;;;7399404;19;19914;-73
2023/07/06 01:19:02;;;;;;;8.82;3.10;;;22.60;99.90;;;;;;7401931;19;19907;-74
2023/07/06 01:21:32;;;;;;;6.00;3.15;;;22.70;99.90;;;;;;7398248;19;19907;-74
2023/07/06 01:24:20;;;;;;;7.07;3.20;;;22.70;99.90;;;;;;7398689;19;19918;-74
2023/07/06 01:27:16;;;;;;;9.35;3.20;;;22.70;99.90;;;;;;7400548;19;20013;-74
2023/07/06 01:30:07;;;;;;;9.70;3.20;;;22.60;99.90;;;;;;7399976;19;19928;-74
2023/07/06 01:32:38;;;;;;;12.90;3.88;;;22.60;99.90;;;;;;7399243;19;19922;-74
2023/07/06 01:35:12;;;;;;;9.65;3.10;;;22.60;99.90;;;;;;7399815;19;19933;-74
2023/07/06 01:37:45;;;;;;;6.22;3.25;;;22.60;99.90;;;;;;7400626;19;19915;-73
2023/07/06 01:40:12;;;;;;;7.00;2.60;;;22.60;99.90;;;;;;7397556;19;19914;-73
2023/07/06 01:42:40;;;;;;;7.03;2.95;;;22.60;99.90;;;;;;7399481;19;20919;-73
2023/07/06 01:45:17;;;;;;;8.32;3.25;;;22.50;99.90;;;;;;7397630;19;19947;-73
2023/07/06 01:47:51;;;;;;;6.38;3.17;;;22.50;99.90;;;;;;7397684;19;19943;-73
2023/07/06 01:50:20;;;;;;;12.18;3.53;;;22.50;99.90;;;;;;7399927;19;19915;-74
2023/07/06 01:53:07;;;;;;;9.02;2.83;;;22.50;99.90;;;;;;7400567;19;19931;-74
2023/07/06 01:55:53;;;;;;;10.02;3.33;;;22.50;99.90;;;;;;7398911;19;19945;-74
2023/07/06 01:58:32;;;;;;;8.05;3.75;;;22.50;99.90;;;;;;7398175;19;19914;-74
2023/07/06 02:01:24;;;;;;;7.35;3.35;;;22.50;99.90;;;;;;7398025;19;19911;-73
2023/07/06 02:03:51;;;;;;;8.30;3.15;;;22.50;99.90;;;;;;7396958;19;19994;-73
2023/07/06 02:06:17;;;;;;;9.02;3.00;;;22.50;99.90;;;;;;7396810;19;19918;-74
2023/07/06 02:08:45;;;;;;;7.93;2.83;;;22.40;99.90;;;;;;7398469;19;19978;-73
2023/07/06 02:11:15;;;;;;;8.57;3.25;;;22.40;99.90;;;;;;7393723;19;20248;-74
2023/07/06 02:13:41;;;;;;;6.25;3.05;;;22.40;99.90;;;;;;7377031;19;20368;-73
2023/07/06 02:16:07;;;;;;;7.55;2.88;;;22.50;99.90;;;;;;7394914;19;19906;-74
2023/07/06 02:18:36;;;;;;;5.13;2.40;;;22.40;99.90;;;;;;7401234;19;19919;-73
2023/07/06 02:21:02;;;;;;;6.07;2.80;;;22.40;99.90;;;;;;7395910;19;19926;-73
2023/07/06 02:23:29;;;;;;;7.25;2.70;;;22.40;99.90;;;;;;7397248;19;19939;-73
2023/07/06 02:25:55;;;;;;;;;;;22.40;99.90;;;;;;7399941;19;19930;-73
2023/07/06 02:28:21;;;;;;;7.78;3.17;;;22.40;99.90;;;;;;7398406;19;20346;-72
2023/07/06 02:30:55;;;;;;;7.30;3.08;;;22.50;99.90;;;;;;7394568;19;19931;-73
2023/07/06 02:33:21;;;;;;;8.80;2.90;;;22.50;99.90;;;;;;7396689;19;19915;-74
2023/07/06 02:35:47;;;;;;;8.55;2.60;;;22.50;99.90;;;;;;7399056;19;19918;-73
2023/07/06 02:38:19;;;;;;;5.78;2.83;;;22.50;99.90;;;;;;7397006;19;19914;-73
2023/07/06 02:40:49;;;;;;;6.88;3.30;;;22.50;99.90;;;;;;7397885;19;21044;-72
2023/07/06 02:43:15;;;;;;;8.70;3.10;;;22.50;99.90;;;;;;7394765;19;19922;-73
2023/07/06 02:45:46;;;;;;;6.90;3.40;;;22.50;99.90;;;;;;7398502;19;20389;-74
2023/07/06 02:48:11;;;;;;;9.23;4.15;;;22.50;99.90;;;;;;7395067;19;20250;-73
2023/07/06 02:50:38;;;;;;;7.65;3.40;;;22.50;99.90;;;;;;7399427;19;19926;-74
2023/07/06 02:53:04;;;;;;;;;;;22.50;99.90;;;;;;7395761;19;19915;-74
2023/07/06 02:55:32;;;;;;;11.80;4.18;;;22.50;99.90;;;;;;7402383;19;20787;-74
2023/07/06 02:57:58;;;;;;;9.20;3.65;;;22.50;99.90;;;;;;7403685;19;19922;-73
2023/07/06 03:00:24;;;;;;;7.22;3.90;;;22.50;99.90;;;;;;7350883;19;19926;-73
2023/07/06 03:02:51;;;;;;;8.48;3.58;;;22.60;99.90;;;;;;7401267;19;19927;-73
2023/07/06 03:05:23;;;;;;;10.05;4.15;;;22.50;99.90;;;;;;7400758;19;19918;-74
2023/07/06 03:07:52;;;;;;;8.35;3.55;;;22.50;99.90;;;;;;7404862;19;19919;-74
2023/07/06 03:10:22;;;;;;;9.60;4.00;;;22.50;99.90;;;;;;7402040;19;20287;-74
2023/07/06 03:12:48;;;;;;;9.40;4.13;;;22.50;99.90;;;;;;7401962;19;19982;-74
2023/07/06 03:15:15;;;;;;;;;;;22.50;99.90;;;;;;7378653;19;19919;-73
2023/07/06 03:17:42;;;;;;;10.13;4.38;;;22.50;99.90;;;;;;7402348;19;20261;-74
2023/07/06 03:20:15;;;;;;;9.98;4.35;;;22.50;99.90;;;;;;7401018;19;19926;-73
2023/07/06 03:22:44;;;;;;;8.40;4.05;;;22.50;99.90;;;;;;7403753;19;19926;-73
2023/07/06 03:25:10;;;;;;;9.07;3.95;;;22.50;99.90;;;;;;7401303;19;19910;-74
2023/07/06 03:27:36;;;;;;;9.02;4.18;;;22.50;99.90;;;;;;7404422;19;19943;-73
2023/07/06 03:30:07;;;;;;;9.57;4.13;;;22.50;99.90;;;;;;7348081;19;20038;-73
2023/07/06 03:32:37;;;;;;;7.45;3.50;;;22.50;99.90;;;;;;7401398;19;19918;-74
2023/07/06 03:35:09;;;;;;;7.72;3.60;;;22.40;99.90;;;;;;7399652;19;19945;-74
2023/07/06 03:37:37;;;;;;;7.82;3.38;;;22.40;99.90;;;;;;7402171;19;19907;-73
2023/07/06 03:40:05;;;;;;;8.70;3.78;;;22.40;99.90;;;;;;7399991;19;20350;-74
2023/07/06 03:42:32;;;;;;;8.70;3.83;;;22.40;99.90;;;;;;7403359;19;19914;-74
2023/07/06 03:44:58;;;;;;;8.73;3.35;;;22.40;99.90;;;;;;7406046;19;19925;-74
2023/07/06 03:47:26;;;;;;;8.52;3.53;;;22.40;99.90;;;;;;7403536;19;20417;-74
2023/07/06 03:49:53;;;;;;;9.27;3.67;;;22.40;99.90;;;;;;7400389;19;19939;-74
2023/07/06 03:52:19;;;;;;;7.75;3.35;;;22.40;99.90;;;;;;7399372;19;19922;-74
2023/07/06 03:54:46;;;;;;;8.63;3.92;;;22.30;99.90;;;;;;7402444;19;19934;-74
2023/07/06 03:57:12;;;;;;;8.50;4.72;;;22.30;99.90;;;;;;7400226;19;20259;-74
2023/07/06 03:59:38;;;;;;;7.53;3.72;;;22.30;99.90;;;;;;7401861;19;19929;-74
2023/07/06 04:02:08;;;;;;;7.15;3.47;;;22.30;99.90;;;;;;7400329;19;19970;-73
2023/07/06 04:04:34;;;;;;;11.18;4.40;;;22.30;99.90;;;;;;7401060;19;19943;-74
2023/07/06 04:07:00;;;;;;;9.98;4.13;;;22.20;99.90;;;;;;7402977;19;19919;-73
2023/07/06 04:09:26;;;;;;;8.75;3.47;;;22.20;99.90;;;;;;7401380;19;19935;-74
2023/07/06 04:11:52;;;;;;;7.38;3.55;;;22.20;99.90;;;;;;7402910;19;19927;-75
2023/07/06 04:14:25;;;;;;;8.70;3.70;;;22.10;99.90;;;;;;7398463;19;19911;-74
2023/07/06 04:16:56;;;;;;;7.65;3.53;;;22.10;99.90;;;;;;7402508;19;19947;-74
2023/07/06 04:19:22;;;;;;;8.50;3.28;;;22.20;99.90;;;;;;7397310;19;21212;-74
2023/07/06 04:21:48;;;;;;;;;;;22.20;99.90;;;;;;7403542;19;20174;-74
2023/07/06 04:24:16;;;;;;;10.30;3.53;;;22.20;99.90;;;;;;7403476;19;20344;-74
2023/07/06 04:26:43;;;;;;;31.50;20.27;;;22.20;99.90;;;;;;7399181;19;20852;-73
2023/07/06 04:29:09;;;;;;;10.30;4.10;;;22.20;99.90;;;;;;7400652;19;19915;-74
2023/07/06 04:31:36;;;;;;;6.80;3.33;;;22.30;99.90;;;;;;7398811;19;19919;-74
2023/07/06 04:34:03;;;;;;;7.60;4.03;;;22.30;99.90;;;;;;7399128;19;19936;-74
2023/07/06 04:36:32;;;;;;;7.28;3.65;;;22.30;99.90;;;;;;7401713;19;19930;-74
2023/07/06 04:38:59;;;;;;;8.15;3.22;;;22.40;99.90;;;;;;7349195;19;19926;-73
2023/07/06 04:41:26;;;;;;;7.30;3.30;;;22.40;99.90;;;;;;7397941;19;20339;-75
2023/07/06 04:43:52;;;;;;;8.18;3.58;;;22.40;99.90;;;;;;7400982;19;20498;-75
2023/07/06 04:46:20;;;;;;;11.32;4.07;;;22.40;99.90;;;;;;7398505;19;20078;-74
2023/07/06 04:48:47;;;;;;;9.63;4.15;;;22.50;99.90;;;;;;7402777;19;19926;-74
2023/07/06 04:51:17;;;;;;;10.48;4.18;;;22.50;99.90;;;;;;7400628;19;19907;-75
2023/07/06 04:53:43;;;;;;;14.93;4.68;;;22.50;99.90;;;;;;7401853;19;20400;-75
2023/07/06 04:56:11;;;;;;;8.48;3.80;;;22.60;99.90;;;;;;7375011;19;19927;-76
2023/07/06 04:58:38;;;;;;;8.15;3.78;;;22.60;99.90;;;;;;7399986;19;20497;-73
2023/07/06 05:01:07;;;;;;;7.93;3.83;;;22.60;99.90;;;;;;7400293;19;19998;-75
2023/07/06 05:03:36;;;;;;;8.18;3.50;;;22.70;99.90;;;;;;7403528;19;19918;-73
2023/07/06 05:06:05;;;;;;;6.95;3.13;;;22.70;99.90;;;;;;7399597;19;19974;-74
2023/07/06 05:08:32;;;;;;;7.38;3.33;;;22.70;99.90;;;;;;7400702;19;19922;-74
2023/07/06 05:10:58;;;;;;;11.68;3.92;;;22.90;99.90;;;;;;7398477;19;19921;-74
2023/07/06 05:13:24;;;;;;;6.78;3.55;;;22.90;99.60;;;;;;7401002;19;19919;-73
2023/07/06 05:15:51;;;;;;;5.63;3.15;;;22.90;98.90;;;;;;7398896;19;19914;-74
2023/07/06 05:18:19;;;;;;;7.68;3.88;;;23.00;98.60;;;;;;7400490;19;20280;-74
2023/07/06 05:20:48;;;;;;;7.80;3.50;;;23.00;97.90;;;;;;7402219;19;20013;-75
2023/07/06 05:23:14;;;;;;;8.38;4.00;;;23.10;97.20;;;;;;7400340;19;19922;-74
2023/07/06 05:25:40;;;;;;;10.15;3.83;;;23.20;96.40;;;;;;7399545;19;20858;-74
2023/07/06 05:28:10;;;;;;;7.30;3.00;;;23.20;96.00;;;;;;7398401;19;19918;-73
2023/07/06 05:30:41;;;;;;;8.02;3.65;;;23.20;95.80;;;;;;7400765;19;19919;-74
2023/07/06 05:33:07;;;;;;;7.57;3.35;;;23.30;95.40;;;;;;7399379;19;19922;-74
2023/07/06 05:35:33;;;;;;;9.30;3.00;;;23.40;95.10;;;;;;7399393;19;19958;-74
2023/07/06 05:38:00;;;;;;;8.15;3.40;;;23.40;95.10;;;;;;7377630;19;19923;-74
2023/07/06 05:40:26;;;;;;;7.93;3.90;;;23.50;94.90;;;;;;7399542;19;20261;-74
2023/07/06 05:42:54;;;;;;;8.85;4.05;;;23.50;94.60;;;;;;7402402;19;20254;-75
2023/07/06 05:45:20;;;;;;;6.72;3.60;;;23.50;94.30;;;;;;7399103;19;19922;-75
2023/07/06 05:47:47;;;;;;;6.75;3.42;;;23.50;94.30;;;;;;7402801;19;19945;-73
2023/07/06 05:50:13;;;;;;;8.35;3.22;;;23.60;94.60;;;;;;7401762;19;19919;-73
2023/07/06 05:52:40;;;;;;;5.80;3.10;;;23.60;94.30;;;;;;7400378;19;19947;-73
2023/07/06 05:55:07;;;;;;;6.80;3.20;;;23.60;94.40;;;;;;7396752;19;19930;-74
2023/07/06 05:57:33;;;;;;;;;;;23.70;94.50;;;;;;7402031;19;19948;-73
2023/07/06 05:59:58;;;;;;;9.85;4.25;;;23.70;94.70;;;;;;7399873;19;19918;-74
2023/07/06 06:02:25;;;;;;;9.80;4.60;;;23.60;94.80;;;;;;7396473;19;19919;-75
2023/07/06 06:04:51;;;;;;;7.18;3.42;;;23.60;94.90;;;;;;7398277;19;19918;-74
2023/07/06 06:07:19;;;;;;;;;;;23.70;95.10;;;;;;7398766;19;19911;-74
2023/07/06 06:09:47;;;;;;;9.65;4.88;;;23.60;95.10;;;;;;7400635;19;19922;-74
2023/07/06 06:12:18;;;;;;;9.20;4.80;;;23.70;95.20;;;;;;7397904;19;19915;-74
2023/07/06 06:14:46;;;;;;;8.35;4.00;;;23.60;95.30;;;;;;7401539;19;19911;-74
2023/07/06 06:17:13;;;;;;;10.48;3.85;;;23.70;95.40;;;;;;7395900;19;19923;-74
2023/07/06 06:19:40;;;;;;;8.93;4.53;;;23.70;95.30;;;;;;7399321;19;19940;-75
2023/07/06 06:22:08;;;;;;;8.13;3.75;;;23.80;95.10;;;;;;7396291;19;19978;-74
2023/07/06 06:24:33;;;;;;;8.70;4.25;;;23.90;94.30;;;;;;7400243;19;19915;-74
2023/07/06 06:27:00;;;;;;;9.90;3.72;;;23.90;93.70;;;;;;7398046;19;20332;-74
2023/07/06 06:29:27;;;;;;;8.30;3.45;;;24.00;93.40;;;;;;7398664;19;19922;-74
2023/07/06 06:31:54;;;;;;;9.30;4.20;;;24.10;92.60;;;;;;7403293;19;20247;-74
2023/07/06 06:34:19;;;;;;;6.65;3.30;;;24.20;91.90;;;;;;7403513;19;19994;-74
2023/07/06 06:36:47;;;;;;;5.90;2.83;;;24.30;91.20;;;;;;7399734;19;19915;-73
2023/07/06 06:39:14;;;;;;;8.00;3.60;;;24.40;90.20;;;;;;7403769;19;19919;-74
2023/07/06 06:41:41;;;;;;;7.75;3.28;;;24.60;89.80;;;;;;7404474;19;19918;-74
2023/07/06 06:44:07;;;;;;;7.38;3.25;;;24.80;89.50;;;;;;7402235;19;19914;-74
2023/07/06 06:46:33;;;;;;;10.70;3.30;;;25.00;88.30;;;;;;7404521;19;19979;-74
2023/07/06 06:49:00;;;;;;;11.50;3.28;;;25.10;87.20;;;;;;7407057;19;19929;-74
2023/07/06 06:51:26;;;;;;;7.30;2.95;;;25.20;86.00;;;;;;7397575;19;19982;-75
2023/07/06 06:53:53;;;;;;;8.18;2.97;;;25.20;85.50;;;;;;7402322;19;19926;-74
2023/07/06 06:56:19;;;;;;;5.68;2.33;;;25.20;83.40;;;;;;7402222;19;19918;-74
2023/07/06 06:58:46;;;;;;;8.60;2.95;;;25.20;82.90;;;;;;7361852;19;20353;-76
2023/07/06 07:01:15;;;;;;;8.88;3.15;;;25.30;82.40;;;;;;7398600;19;19923;-75
2023/07/06 07:03:41;;;;;;;7.95;2.70;;;25.30;82.10;;;;;;7405533;19;19922;-74
2023/07/06 07:06:12;;;;;;;6.18;2.50;;;25.40;81.80;;;;;;7398664;19;19932;-73
2023/07/06 07:08:51;;;;;;;5.90;2.60;;;25.30;80.40;;;;;;7381522;19;19915;-75
2023/07/06 07:11:22;;;;;;;4.57;2.42;;;25.30;80.80;;;;;;7368741;19;19910;-74
2023/07/06 07:13:50;;;;;;;10.05;2.50;;;25.40;80.20;;;;;;7402923;19;19915;-74
2023/07/06 07:16:17;;;;;;;8.07;2.67;;;25.50;79.00;;;;;;7402400;19;19910;-74
2023/07/06 07:18:43;;;;;;;;;;;25.50;78.50;;;;;;7405842;19;19922;-74
2023/07/06 07:21:10;;;;;;;9.45;3.15;;;25.40;77.40;;;;;;7402164;19;20596;-74
2023/07/06 07:23:43;;;;;;;6.65;2.97;;;25.40;76.80;;;;;;7401412;19;20459;-74
2023/07/06 07:26:17;;;;;;;7.25;2.63;;;25.40;76.90;;;;;;7401591;19;20738;-75
2023/07/06 07:28:45;;;;;;;6.18;2.38;;;25.40;76.60;;;;;;7397474;19;19922;-73
2023/07/06 07:31:11;;;;;;;7.90;2.60;;;25.60;76.30;;;;;;7391524;19;19952;-74
2023/07/06 07:33:41;;;;;;;7.13;2.70;;;25.70;74.80;;;;;;7402040;19;19925;-74
2023/07/06 07:36:18;;;;;;;7.63;2.85;;;25.80;74.30;;;;;;7402213;19;19935;-74
2023/07/06 07:38:45;;;;;;;7.18;2.78;;;26.00;74.10;;;;;;7402341;19;19918;-73
2023/07/06 07:41:12;;;;;;;5.93;2.70;;;26.00;73.80;;;;;;7396487;19;19922;-74
2023/07/06 07:43:42;;;;;;;9.05;2.67;;;26.00;73.50;;;;;;7400271;19;20327;-75
2023/07/06 07:46:10;;;;;;;7.78;3.30;;;26.10;73.40;;;;;;7391104;19;19917;-74
2023/07/06 07:48:45;;;;;;;8.38;3.08;;;26.20;73.40;;;;;;7384279;19;19914;-74
2023/07/06 07:51:13;;;;;;;4.82;2.78;;;26.20;73.30;;;;;;7391210;19;19923;-75
2023/07/06 07:53:40;;;;;;;8.25;2.78;;;26.30;73.50;;;;;;7401271;19;20320;-74
2023/07/06 07:56:06;;;;;;;5.68;2.60;;;26.30;72.90;;;;;;7395439;19;19911;-74
2023/07/06 07:58:35;;;;;;;;;;;26.40;72.10;;;;;;7403976;19;19942;-74
2023/07/06 08:01:07;;;;;;;7.50;2.78;;;26.40;72.30;;;;;;7364393;19;19922;-75
2023/07/06 08:03:33;;;;;;;6.38;2.60;;;26.50;71.60;;;;;;7397603;19;19911;-73
2023/07/06 08:06:02;;;;;;;5.90;2.25;;;26.50;70.50;;;;;;7395596;19;19975;-73
2023/07/06 08:08:30;;;;;;;6.68;2.70;;;26.50;70.40;;;;;;7395152;19;19914;-74
2023/07/06 08:11:01;;;;;;;5.75;2.25;;;26.60;70.00;;;;;;7391472;19;19918;-74
2023/07/06 08:13:27;;;;;;;4.95;1.88;;;26.70;68.20;;;;;;7398188;19;19933;-74
2023/07/06 08:15:54;;;;;;;4.97;2.95;;;26.80;68.00;;;;;;7400689;19;19910;-75
2023/07/06 08:18:19;;;;;;;6.38;2.22;;;26.80;67.20;;;;;;7401314;19;20030;-75
2023/07/06 08:20:47;;;;;;;6.32;2.53;;;27.00;67.10;;;;;;7387724;19;19922;-75
2023/07/06 08:23:13;;;;;;;5.78;2.25;;;27.10;66.60;;;;;;7399288;19;19943;-74
2023/07/06 08:25:41;;;;;;;7.85;3.05;;;27.10;66.40;;;;;;7372387;19;19915;-74
2023/07/06 08:28:08;;;;;;;6.38;2.42;;;27.30;65.40;;;;;;7400913;19;19914;-74
2023/07/06 08:30:36;;;;;;;6.13;2.10;;;27.30;65.50;;;;;;7393250;19;20261;-74
2023/07/06 08:33:02;;;;;;;5.50;2.40;;;27.30;65.10;;;;;;7399519;19;19910;-74
2023/07/06 08:35:29;;;;;;;7.22;2.15;;;27.40;64.70;;;;;;7397572;19;20342;-75
2023/07/06 08:37:56;;;;;;;5.07;2.20;;;27.40;64.40;;;;;;7398360;19;19919;-74
2023/07/06 08:40:28;;;;;;;5.60;2.22;;;27.30;64.40;;;;;;7393479;19;20882;-74
2023/07/06 08:42:56;;;;;;;5.68;2.80;;;27.30;64.80;;;;;;7401530;19;20258;-74
2023/07/06 08:45:36;;;;;;;5.35;2.50;;;27.40;64.50;;;;;;7397034;19;22252;-75
2023/07/06 08:48:03;;;;;;;5.30;3.13;;;27.40;64.60;;;;;;7378917;19;21177;-74
2023/07/06 08:50:33;;;;;;;5.88;3.20;;;27.50;63.90;;;;;;7399655;19;20300;-74
2023/07/06 08:53:00;;;;;;;6.70;2.65;;;27.70;63.80;;;;;;7399657;19;19922;-75
2023/07/06 08:55:30;;;;;;;7.57;2.72;;;27.70;63.00;;;;;;7392657;19;20349;-75
2023/07/06 08:57:56;;;;;;;5.13;2.53;;;27.80;62.80;;;;;;7395274;19;20277;-74
2023/07/06 09:00:25;;;;;;;6.75;3.05;;;27.90;62.60;;;;;;7386972;19;19922;-74
2023/07/06 09:02:55;;;;;;;5.10;2.10;;;28.00;62.50;;;;;;7396794;19;19922;-75
2023/07/06 09:05:21;;;;;;;6.70;2.10;;;28.00;61.80;;;;;;7399742;19;19919;-75
2023/07/06 09:07:48;;;;;;;;;;;28.20;61.50;;;;;;7403666;19;20010;-75
2023/07/06 09:10:20;;;;;;;4.70;2.22;;;28.10;61.50;;;;;;7398713;19;19929;-75
2023/07/06 09:12:48;;;;;;;5.57;2.78;;;27.80;61.40;;;;;;7400265;19;20247;-75
2023/07/06 09:15:21;;;;;;;6.07;2.17;;;27.90;61.10;;;;;;7398415;19;19911;-75
2023/07/06 09:17:52;;;;;;;5.15;2.22;;;28.00;61.00;;;;;;7399719;19;19926;-74
2023/07/06 09:20:20;;;;;;;6.68;2.80;;;28.20;60.40;;;;;;7398698;19;19943;-75
2023/07/06 09:22:47;;;;;;;7.40;2.15;;;28.40;59.80;;;;;;7401558;19;19918;-74
2023/07/06 09:25:25;;;;;;;5.32;2.13;;;28.60;59.60;;;;;;7400602;19;19943;-75
2023/07/06 09:27:55;;;;;;;6.88;2.25;;;28.70;59.20;;;;;;7399656;19;19922;-74
2023/07/06 09:30:29;;;;;;;7.50;2.92;;;28.80;58.70;;;;;;7398775;19;20296;-73
2023/07/06 09:33:06;;;;;;;7.45;2.35;;;28.90;58.40;;;;;;7398707;19;19927;-74
2023/07/06 09:35:36;;;;;;;4.75;2.22;;;28.90;58.10;;;;;;7396774;19;20071;-74
2023/07/06 09:38:03;;;;;;;6.20;2.63;;;29.00;57.00;;;;;;7400765;19;19915;-74
2023/07/06 09:40:31;;;;;;;5.15;2.55;;;28.70;57.20;;;;;;7375460;19;19986;-74
2023/07/06 09:42:57;;;;;;;4.70;2.28;;;28.70;57.10;;;;;;7402541;19;19942;-75
2023/07/06 09:45:29;;;;;;;8.60;3.28;;;28.60;57.60;;;;;;7398035;19;20314;-74
2023/07/06 09:48:21;;;;;;;;;;;28.90;57.60;;;;;;7400709;19;19907;-74
2023/07/06 09:50:51;;;;;;;4.85;2.10;;;29.00;56.20;;;;;;7396378;19;19918;-74
2023/07/06 09:53:25;;;;;;;7.10;2.42;;;28.60;56.00;;;;;;7394514;19;20327;-75
2023/07/06 09:55:51;;;;;;;5.28;2.22;;;28.80;56.70;;;;;;7399381;19;19918;-74
2023/07/06 09:58:24;;;;;;;7.57;2.72;;;28.70;56.60;;;;;;7398613;19;19918;-73
2023/07/06 10:01:14;;;;;;;8.52;2.08;;;28.80;56.20;;;;;;7399588;19;19935;-74
2023/07/06 10:04:15;;;;;;;6.45;2.35;;;28.80;56.30;;;;;;7400940;19;19918;-74
2023/07/06 10:06:56;;;;;;;7.25;2.17;;;29.10;55.50;;;;;;7402568;19;19945;-75
2023/07/06 10:09:32;;;;;;;5.55;2.50;;;29.10;55.80;;;;;;7403345;19;20390;-73
2023/07/06 10:12:08;;;;;;;7.32;1.95;;;29.50;55.60;;;;;;7404506;19;20012;-74
2023/07/06 10:14:51;;;;;;;5.57;1.92;;;29.60;55.00;;;;;;7403596;19;19919;-74
2023/07/06 10:17:19;;;;;;;6.65;2.50;;;29.30;55.30;;;;;;7391072;19;19926;-74
2023/07/06 10:20:21;;;;;;;7.45;2.40;;;29.20;55.00;;;;;;7356067;19;19918;-73
2023/07/06 10:23:18;;;;;;;4.93;2.22;;;29.10;55.00;;;;;;7398898;19;19915;-73
2023/07/06 10:26:14;;;;;;;5.65;2.10;;;29.30;55.10;;;;;;7394833;19;20454;-73
2023/07/06 10:28:55;;;;;;;7.63;2.75;;;29.50;54.90;;;;;;7400041;19;19911;-73
2023/07/06 10:31:29;;;;;;;6.65;2.22;;;29.60;54.50;;;;;;7401826;19;19910;-74
2023/07/06 10:34:13;;;;;;;6.10;2.08;;;29.70;54.00;;;;;;7406144;19;19929;-73
2023/07/06 10:36:40;;;;;;;5.70;2.08;;;29.50;54.60;;;;;;7403073;19;19985;-74
2023/07/06 10:39:24;;;;;;;5.38;2.03;;;29.60;54.20;;;;;;7403694;19;19923;-74
2023/07/06 10:42:00;;;;;;;6.28;2.28;;;29.70;54.40;;;;;;7404722;19;19977;-73
2023/07/06 10:44:43;;;;;;;6.10;1.95;;;29.60;53.90;;;;;;7400424;19;19921;-74
2023/07/06 10:47:28;;;;;;;6.68;2.13;;;29.60;54.00;;;;;;7390283;19;19926;-73
2023/07/06 10:50:19;;;;;;;6.38;2.17;;;29.90;54.10;;;;;;7398376;19;19953;-75
2023/07/06 10:53:03;;;;;;;5.82;2.13;;;30.00;53.10;;;;;;7399122;19;19942;-74
2023/07/06 10:55:36;;;;;;;9.05;2.40;;;29.90;52.90;;;;;;7404615;19;20257;-74
2023/07/06 10:58:32;;;;;;;5.93;2.10;;;30.10;53.90;;;;;;7402288;19;19929;-74
2023/07/06 11:01:03;;;;;;;5.47;2.13;;;30.50;53.80;;;;;;7394418;19;19935;-74
2023/07/06 11:03:31;;;;;;;7.88;2.20;;;30.60;52.10;;;;;;7387427;19;19918;-74
2023/07/06 11:06:13;;;;;;;7.57;2.42;;;30.20;53.00;;;;;;7375686;19;19922;-73
2023/07/06 11:09:14;;;;;;;6.78;2.47;;;30.00;53.10;;;;;;7401292;19;19925;-74
2023/07/06 11:11:48;;;;;;;7.30;3.30;;;30.00;52.90;;;;;;7355055;19;19943;-74
2023/07/06 11:14:33;;;;;;;6.68;1.85;;;30.10;53.20;;;;;;7401474;19;20336;-74
2023/07/06 11:17:04;;;;;;;7.90;3.05;;;30.00;53.30;;;;;;7403434;19;20709;-76
2023/07/06 11:19:36;;;;;;;6.05;2.40;;;29.90;52.50;;;;;;7355101;19;19929;-74
2023/07/06 11:22:16;;;;;;;5.43;2.25;;;30.00;52.80;;;;;;7403150;19;19914;-74
2023/07/06 11:24:48;;;;;;;6.50;2.63;;;30.20;53.10;;;;;;7403591;19;20347;-74
2023/07/06 11:27:43;;;;;;;9.32;2.70;;;30.70;52.10;;;;;;7401110;19;19941;-74
2023/07/06 11:30:25;;;;;;;5.47;2.72;;;30.80;51.40;;;;;;7399685;19;19926;-74
2023/07/06 11:33:10;;;;;;;6.57;2.28;;;31.00;51.80;;;;;;7383190;19;19910;-75
2023/07/06 11:36:19;;;;;;;7.03;2.58;;;31.20;51.30;;;;;;7402472;19;19930;-74
2023/07/06 11:38:55;;;;;;;5.97;2.30;;;32.00;50.50;;;;;;7403847;19;19914;-74
2023/07/06 11:41:39;;;;;;;6.28;2.72;;;31.60;49.80;;;;;;7403022;19;19990;-74
2023/07/06 11:44:45;;;;;;;9.70;3.63;;;32.30;49.80;;;;;;7398935;19;19919;-73
2023/07/06 11:47:23;;;;;;;4.50;2.25;;;32.40;48.50;;;;;;7393894;19;19915;-74
2023/07/06 11:49:52;;;;;;;7.13;2.63;;;31.50;49.70;;;;;;7358882;19;19921;-74
2023/07/06 11:52:24;;;;;;;5.88;2.28;;;30.40;50.80;;;;;;7391537;19;19954;-73
2023/07/06 11:55:07;;;;;;;6.50;2.58;;;30.70;51.20;;;;;;7398320;19;20600;-75
2023/07/06 11:57:45;;;;;;;5.82;2.70;;;30.30;51.50;;;;;;7398384;19;19985;-74
2023/07/06 12:03:10;;;;;;;8.00;2.78;;;31.90;50.20;;;;;;7395702;19;20264;-74
2023/07/06 12:05:39;;;;;;;5.57;2.13;;;31.30;50.00;;;;;;7399789;19;20303;-73
2023/07/06 12:08:14;;;;;;;5.75;3.10;;;30.20;51.10;;;;;;7400093;19;19919;-74
2023/07/06 12:10:45;;;;;;;5.53;3.15;;;30.40;51.20;;;;;;7402927;19;20423;-74
2023/07/06 12:13:19;;;;;;;8.20;2.63;;;30.80;51.40;;;;;;7400153;19;19918;-74
2023/07/06 12:15:48;;;;;;;7.78;2.65;;;30.90;50.80;;;;;;7401552;19;19943;-73
2023/07/06 12:18:15;;;;;;;5.20;2.60;;;31.10;51.20;;;;;;7398986;19;20241;-74
2023/07/06 12:20:42;;;;;;;5.07;2.40;;;31.50;51.20;;;;;;7401292;19;19910;-73
2023/07/06 12:23:14;;;;;;;8.73;3.10;;;31.60;50.90;;;;;;7347554;19;19919;-73
2023/07/06 12:25:58;;;;;;;5.18;2.58;;;32.40;50.60;;;;;;7402474;19;19921;-74
2023/07/06 12:28:29;;;;;;;5.13;2.58;;;32.20;49.90;;;;;;7400082;19;19907;-74
2023/07/06 12:30:59;;;;;;;7.53;3.05;;;31.90;50.50;;;;;;7398616;19;19955;-74
2023/07/06 12:33:28;;;;;;;8.57;3.20;;;32.50;50.60;;;;;;7396872;19;19922;-73
2023/07/06 12:35:54;;;;;;;5.47;2.55;;;33.40;49.30;;;;;;7400456;19;19931;-73
2023/07/06 12:38:22;;;;;;;7.07;3.17;;;33.70;49.10;;;;;;7402133;19;19929;-73
2023/07/06 12:40:49;;;;;;;6.93;2.80;;;33.90;49.10;;;;;;7401589;19;19907;-73
2023/07/06 12:43:26;;;;;;;6.32;3.25;;;33.80;48.60;;;;;;7396639;19;19939;-73
2023/07/06 12:45:54;;;;;;;7.32;3.92;;;33.10;50.00;;;;;;7400693;19;19949;-74
2023/07/06 12:48:25;;;;;;;6.28;3.40;;;32.90;51.00;;;;;;7398922;19;19940;-73
2023/07/06 12:50:54;;;;;;;8.57;3.30;;;32.60;51.70;;;;;;7399845;19;20320;-73
2023/07/06 12:53:31;;;;;;;5.53;3.30;;;32.20;52.90;;;;;;7396865;19;19914;-73
2023/07/06 12:56:06;;;;;;;6.28;3.33;;;31.80;52.80;;;;;;7403550;19;19958;-74
2023/07/06 12:58:34;;;;;;;6.43;3.55;;;32.20;53.60;;;;;;7366975;19;20375;-74
2023/07/06 13:01:10;;;;;;;6.35;2.88;;;32.60;53.20;;;;;;7401040;19;19918;-74
2023/07/06 13:03:46;;;;;;;5.97;3.30;;;32.90;53.10;;;;;;7400048;19;19915;-74
2023/07/06 13:06:12;;;;;;;5.95;3.53;;;33.40;52.80;;;;;;7395091;19;19922;-73
2023/07/06 13:08:38;;;;;;;5.85;3.50;;;33.80;51.50;;;;;;7399796;19;19942;-74
2023/07/06 13:11:07;;;;;;;9.90;3.47;;;32.70;52.50;;;;;;7400215;19;20043;-73
2023/07/06 13:13:37;;;;;;;6.30;3.30;;;32.30;53.70;;;;;;7403114;19;19990;-75